sensor_id;sensor_type;location;lat;lon;timestamp;P1;durP1;ratioP1;P2;durP2;ratioP2
62687;SDS011;48752;51.056;17.056;2022-09-03T00:01:48;3.22;;;1.40;;
62687;SDS011;48752;51.056;17.056;2022-09-03T00:07:11;1.70;;;1.35;;
62687;SDS011;48752;51.056;17.056;2022-09-03T00:09:42;1.60;;;1.00;;
62687;SDS011;48752;51.056;17.056;2022-09-03T00:12:16;1.70;;;1.38;;
62687;SDS011;48752;51.056;17.056;2022-09-03T00:14:52;1.88;;;1.25;;
62687;SDS011;48752;51.056;17.056;2022-09-03T00:17:21;2.13;;;1.20;;
62687;SDS011;48752;51.056;17.056;2022-09-03T00:19:54;3.47;;;1.33;;
62687;SDS011;48752;51.056;17.056;2022-09-03T00:22:26;5.32;;;1.83;;
62687;SDS011;48752;51.056;17.056;2022-09-03T00:24:54;6.68;;;1.67;;
62687;SDS011;48752;51.056;17.056;2022-09-03T00:27:22;2.88;;;1.40;;
62687;SDS011;48752;51.056;17.056;2022-09-03T00:29:58;2.03;;;1.08;;
62687;SDS011;48752;51.056;17.056;2022-09-03T00:32:46;3.53;;;1.80;;
62687;SDS011;48752;51.056;17.056;2022-09-03T00:37:53;3.40;;;1.40;;
62687;SDS011;48752;51.056;17.056;2022-09-03T00:43:03;2.22;;;1.65;;
62687;SDS011;48752;51.056;17.056;2022-09-03T00:56:03;2.40;;;1.70;;
62687;SDS011;48752;51.056;17.056;2022-09-03T01:01:27;3.50;;;2.00;;
62687;SDS011;48752;51.056;17.056;2022-09-03T01:06:56;2.22;;;1.50;;
62687;SDS011;48752;51.056;17.056;2022-09-03T01:17:34;1.67;;;1.50;;
62687;SDS011;48752;51.056;17.056;2022-09-03T01:25:12;3.15;;;1.60;;
62687;SDS011;48752;51.056;17.056;2022-09-03T01:30:41;6.35;;;4.30;;
62687;SDS011;48752;51.056;17.056;2022-09-03T01:40:55;3.13;;;1.65;;
62687;SDS011;48752;51.056;17.056;2022-09-03T01:46:24;4.15;;;2.00;;
62687;SDS011;48752;51.056;17.056;2022-09-03T01:51:49;4.13;;;2.00;;
62687;SDS011;48752;51.056;17.056;2022-09-03T01:57:49;2.60;;;2.08;;
62687;SDS011;48752;51.056;17.056;2022-09-03T02:00:11;2.72;;;2.00;;
62687;SDS011;48752;51.056;17.056;2022-09-03T02:02:43;3.33;;;2.00;;
62687;SDS011;48752;51.056;17.056;2022-09-03T02:07:57;4.00;;;2.17;;
62687;SDS011;48752;51.056;17.056;2022-09-03T02:10:26;3.30;;;2.15;;
62687;SDS011;48752;51.056;17.056;2022-09-03T02:13:06;7.07;;;2.00;;
62687;SDS011;48752;51.056;17.056;2022-09-03T02:15:34;2.30;;;1.90;;
62687;SDS011;48752;51.056;17.056;2022-09-03T02:18:04;6.90;;;1.92;;
62687;SDS011;48752;51.056;17.056;2022-09-03T02:20:31;5.40;;;2.15;;
62687;SDS011;48752;51.056;17.056;2022-09-03T02:22:57;5.00;;;2.10;;
62687;SDS011;48752;51.056;17.056;2022-09-03T02:25:23;2.90;;;1.90;;
62687;SDS011;48752;51.056;17.056;2022-09-03T02:27:53;4.37;;;2.00;;
62687;SDS011;48752;51.056;17.056;2022-09-03T02:30:19;4.00;;;2.25;;
62687;SDS011;48752;51.056;17.056;2022-09-03T02:32:44;4.05;;;2.13;;
62687;SDS011;48752;51.056;17.056;2022-09-03T02:35:10;2.30;;;1.80;;
62687;SDS011;48752;51.056;17.056;2022-09-03T02:37:36;4.25;;;2.30;;
62687;SDS011;48752;51.056;17.056;2022-09-03T02:40:02;3.35;;;2.45;;
62687;SDS011;48752;51.056;17.056;2022-09-03T02:42:32;4.57;;;2.58;;
62687;SDS011;48752;51.056;17.056;2022-09-03T02:47:42;4.82;;;2.13;;
62687;SDS011;48752;51.056;17.056;2022-09-03T02:50:09;4.03;;;2.28;;
62687;SDS011;48752;51.056;17.056;2022-09-03T02:52:34;3.28;;;1.98;;
62687;SDS011;48752;51.056;17.056;2022-09-03T02:55:00;4.45;;;2.30;;
62687;SDS011;48752;51.056;17.056;2022-09-03T02:57:25;3.70;;;2.33;;
62687;SDS011;48752;51.056;17.056;2022-09-03T02:59:51;4.07;;;2.15;;
62687;SDS011;48752;51.056;17.056;2022-09-03T03:02:17;2.85;;;2.13;;
62687;SDS011;48752;51.056;17.056;2022-09-03T03:04:42;3.88;;;2.17;;
62687;SDS011;48752;51.056;17.056;2022-09-03T03:07:07;6.20;;;2.47;;
62687;SDS011;48752;51.056;17.056;2022-09-03T03:09:33;2.97;;;2.13;;
62687;SDS011;48752;51.056;17.056;2022-09-03T03:11:58;6.75;;;3.08;;
62687;SDS011;48752;51.056;17.056;2022-09-03T03:14:24;3.97;;;2.47;;
62687;SDS011;48752;51.056;17.056;2022-09-03T03:16:49;4.45;;;2.40;;
62687;SDS011;48752;51.056;17.056;2022-09-03T03:19:15;4.93;;;2.45;;
62687;SDS011;48752;51.056;17.056;2022-09-03T03:21:41;3.38;;;2.20;;
62687;SDS011;48752;51.056;17.056;2022-09-03T03:24:06;3.20;;;2.67;;
62687;SDS011;48752;51.056;17.056;2022-09-03T03:26:32;4.13;;;2.22;;
62687;SDS011;48752;51.056;17.056;2022-09-03T03:28:58;3.40;;;2.20;;
62687;SDS011;48752;51.056;17.056;2022-09-03T03:31:25;3.72;;;2.53;;
62687;SDS011;48752;51.056;17.056;2022-09-03T03:33:55;4.93;;;2.53;;
62687;SDS011;48752;51.056;17.056;2022-09-03T03:36:22;3.45;;;2.15;;
62687;SDS011;48752;51.056;17.056;2022-09-03T03:38:52;9.20;;;2.80;;
62687;SDS011;48752;51.056;17.056;2022-09-03T03:41:19;5.80;;;3.15;;
62687;SDS011;48752;51.056;17.056;2022-09-03T03:43:47;3.53;;;2.33;;
62687;SDS011;48752;51.056;17.056;2022-09-03T03:46:13;19.02;;;12.88;;
62687;SDS011;48752;51.056;17.056;2022-09-03T03:48:41;7.05;;;4.97;;
62687;SDS011;48752;51.056;17.056;2022-09-03T03:51:07;2.58;;;2.17;;
62687;SDS011;48752;51.056;17.056;2022-09-03T03:53:34;4.93;;;2.85;;
62687;SDS011;48752;51.056;17.056;2022-09-03T03:56:01;4.20;;;2.38;;
62687;SDS011;48752;51.056;17.056;2022-09-03T03:58:28;3.75;;;2.20;;
62687;SDS011;48752;51.056;17.056;2022-09-03T04:00:55;4.38;;;2.75;;
62687;SDS011;48752;51.056;17.056;2022-09-03T04:03:27;5.05;;;3.28;;
62687;SDS011;48752;51.056;17.056;2022-09-03T04:05:54;4.85;;;2.67;;
62687;SDS011;48752;51.056;17.056;2022-09-03T04:08:20;3.33;;;2.05;;
62687;SDS011;48752;51.056;17.056;2022-09-03T04:10:45;3.67;;;2.40;;
62687;SDS011;48752;51.056;17.056;2022-09-03T04:13:11;5.68;;;2.45;;
62687;SDS011;48752;51.056;17.056;2022-09-03T04:15:37;3.47;;;2.33;;
62687;SDS011;48752;51.056;17.056;2022-09-03T04:18:02;4.13;;;2.38;;
62687;SDS011;48752;51.056;17.056;2022-09-03T04:20:28;3.17;;;2.28;;
62687;SDS011;48752;51.056;17.056;2022-09-03T04:22:53;5.13;;;2.70;;
62687;SDS011;48752;51.056;17.056;2022-09-03T04:25:18;3.38;;;2.30;;
62687;SDS011;48752;51.056;17.056;2022-09-03T04:27:44;2.88;;;1.90;;
62687;SDS011;48752;51.056;17.056;2022-09-03T04:30:10;6.07;;;2.25;;
62687;SDS011;48752;51.056;17.056;2022-09-03T04:32:35;4.20;;;2.42;;
62687;SDS011;48752;51.056;17.056;2022-09-03T04:35:23;3.97;;;2.53;;
62687;SDS011;48752;51.056;17.056;2022-09-03T04:37:57;4.05;;;2.95;;
62687;SDS011;48752;51.056;17.056;2022-09-03T04:40:23;7.18;;;2.83;;
62687;SDS011;48752;51.056;17.056;2022-09-03T04:42:48;5.25;;;2.67;;
62687;SDS011;48752;51.056;17.056;2022-09-03T04:45:13;4.80;;;2.63;;
62687;SDS011;48752;51.056;17.056;2022-09-03T04:47:42;5.55;;;3.15;;
62687;SDS011;48752;51.056;17.056;2022-09-03T04:50:12;4.50;;;2.60;;
62687;SDS011;48752;51.056;17.056;2022-09-03T04:52:39;5.57;;;3.10;;
62687;SDS011;48752;51.056;17.056;2022-09-03T04:55:07;4.70;;;2.60;;
62687;SDS011;48752;51.056;17.056;2022-09-03T04:57:35;4.57;;;2.33;;
62687;SDS011;48752;51.056;17.056;2022-09-03T05:00:03;5.57;;;2.70;;
62687;SDS011;48752;51.056;17.056;2022-09-03T05:02:44;3.58;;;2.58;;
62687;SDS011;48752;51.056;17.056;2022-09-03T05:05:16;3.50;;;2.25;;
62687;SDS011;48752;51.056;17.056;2022-09-03T05:07:42;4.47;;;2.38;;
62687;SDS011;48752;51.056;17.056;2022-09-03T05:10:08;3.28;;;2.10;;
62687;SDS011;48752;51.056;17.056;2022-09-03T05:12:38;4.40;;;2.00;;
62687;SDS011;48752;51.056;17.056;2022-09-03T05:15:05;6.80;;;2.50;;
62687;SDS011;48752;51.056;17.056;2022-09-03T05:17:31;3.28;;;2.38;;
62687;SDS011;48752;51.056;17.056;2022-09-03T05:19:57;7.43;;;2.80;;
62687;SDS011;48752;51.056;17.056;2022-09-03T05:22:24;3.08;;;2.45;;
62687;SDS011;48752;51.056;17.056;2022-09-03T05:24:49;4.35;;;2.35;;
62687;SDS011;48752;51.056;17.056;2022-09-03T05:27:16;4.80;;;2.42;;
62687;SDS011;48752;51.056;17.056;2022-09-03T05:29:43;5.05;;;2.33;;
62687;SDS011;48752;51.056;17.056;2022-09-03T05:32:10;3.33;;;2.35;;
62687;SDS011;48752;51.056;17.056;2022-09-03T05:34:37;9.45;;;2.63;;
62687;SDS011;48752;51.056;17.056;2022-09-03T05:37:03;6.38;;;2.10;;
62687;SDS011;48752;51.056;17.056;2022-09-03T05:39:30;4.72;;;2.08;;
62687;SDS011;48752;51.056;17.056;2022-09-03T05:41:58;3.28;;;1.70;;
62687;SDS011;48752;51.056;17.056;2022-09-03T05:44:26;6.28;;;2.13;;
62687;SDS011;48752;51.056;17.056;2022-09-03T05:49:20;3.22;;;1.85;;
62687;SDS011;48752;51.056;17.056;2022-09-03T05:51:46;4.90;;;2.00;;
62687;SDS011;48752;51.056;17.056;2022-09-03T05:54:12;2.50;;;1.80;;
62687;SDS011;48752;51.056;17.056;2022-09-03T05:56:38;4.03;;;1.95;;
62687;SDS011;48752;51.056;17.056;2022-09-03T05:59:12;4.68;;;1.60;;
62687;SDS011;48752;51.056;17.056;2022-09-03T06:01:39;3.90;;;1.85;;
62687;SDS011;48752;51.056;17.056;2022-09-03T06:04:09;3.60;;;1.42;;
62687;SDS011;48752;51.056;17.056;2022-09-03T06:06:42;5.55;;;2.20;;
62687;SDS011;48752;51.056;17.056;2022-09-03T06:09:11;3.75;;;1.90;;
62687;SDS011;48752;51.056;17.056;2022-09-03T06:11:39;2.63;;;2.00;;
62687;SDS011;48752;51.056;17.056;2022-09-03T06:14:10;5.45;;;1.95;;
62687;SDS011;48752;51.056;17.056;2022-09-03T06:16:41;2.65;;;1.73;;
62687;SDS011;48752;51.056;17.056;2022-09-03T06:19:09;2.55;;;2.10;;
62687;SDS011;48752;51.056;17.056;2022-09-03T06:21:36;3.78;;;2.28;;
62687;SDS011;48752;51.056;17.056;2022-09-03T06:24:16;3.35;;;1.88;;
62687;SDS011;48752;51.056;17.056;2022-09-03T06:26:44;6.10;;;2.15;;
62687;SDS011;48752;51.056;17.056;2022-09-03T06:29:11;3.20;;;1.92;;
62687;SDS011;48752;51.056;17.056;2022-09-03T06:31:38;2.22;;;1.70;;
62687;SDS011;48752;51.056;17.056;2022-09-03T06:34:05;4.30;;;1.77;;
62687;SDS011;48752;51.056;17.056;2022-09-03T06:36:42;5.60;;;1.60;;
62687;SDS011;48752;51.056;17.056;2022-09-03T06:39:08;8.15;;;2.28;;
62687;SDS011;48752;51.056;17.056;2022-09-03T06:41:34;2.83;;;1.95;;
62687;SDS011;48752;51.056;17.056;2022-09-03T06:44:02;4.00;;;1.60;;
62687;SDS011;48752;51.056;17.056;2022-09-03T06:46:30;9.38;;;2.67;;
62687;SDS011;48752;51.056;17.056;2022-09-03T06:48:57;4.15;;;1.70;;
62687;SDS011;48752;51.056;17.056;2022-09-03T06:51:25;5.50;;;1.77;;
62687;SDS011;48752;51.056;17.056;2022-09-03T06:53:54;4.03;;;1.58;;
62687;SDS011;48752;51.056;17.056;2022-09-03T06:56:25;3.63;;;1.98;;
62687;SDS011;48752;51.056;17.056;2022-09-03T06:58:56;5.32;;;1.90;;
62687;SDS011;48752;51.056;17.056;2022-09-03T07:01:41;7.05;;;2.30;;
62687;SDS011;48752;51.056;17.056;2022-09-03T07:04:11;3.00;;;2.00;;
62687;SDS011;48752;51.056;17.056;2022-09-03T07:06:38;3.80;;;2.20;;
62687;SDS011;48752;51.056;17.056;2022-09-03T07:09:06;6.03;;;2.20;;
62687;SDS011;48752;51.056;17.056;2022-09-03T07:11:33;3.60;;;2.03;;
62687;SDS011;48752;51.056;17.056;2022-09-03T07:14:00;4.40;;;2.17;;
62687;SDS011;48752;51.056;17.056;2022-09-03T07:16:29;4.18;;;2.17;;
62687;SDS011;48752;51.056;17.056;2022-09-03T07:18:57;4.57;;;2.10;;
62687;SDS011;48752;51.056;17.056;2022-09-03T07:21:26;5.78;;;2.13;;
62687;SDS011;48752;51.056;17.056;2022-09-03T07:23:54;5.13;;;2.10;;
62687;SDS011;48752;51.056;17.056;2022-09-03T07:28:48;6.35;;;2.03;;
62687;SDS011;48752;51.056;17.056;2022-09-03T07:31:34;3.42;;;2.08;;
62687;SDS011;48752;51.056;17.056;2022-09-03T07:34:05;4.13;;;2.30;;
62687;SDS011;48752;51.056;17.056;2022-09-03T07:36:36;7.38;;;2.35;;
62687;SDS011;48752;51.056;17.056;2022-09-03T07:39:04;11.93;;;2.95;;
62687;SDS011;48752;51.056;17.056;2022-09-03T07:41:30;4.45;;;2.03;;
62687;SDS011;48752;51.056;17.056;2022-09-03T07:43:59;6.38;;;2.50;;
62687;SDS011;48752;51.056;17.056;2022-09-03T07:46:36;4.32;;;2.35;;
62687;SDS011;48752;51.056;17.056;2022-09-03T07:49:05;4.93;;;2.75;;
62687;SDS011;48752;51.056;17.056;2022-09-03T07:51:32;6.90;;;3.35;;
62687;SDS011;48752;51.056;17.056;2022-09-03T07:54:01;6.53;;;2.63;;
62687;SDS011;48752;51.056;17.056;2022-09-03T07:56:41;6.55;;;2.53;;
62687;SDS011;48752;51.056;17.056;2022-09-03T07:59:07;7.10;;;3.00;;
62687;SDS011;48752;51.056;17.056;2022-09-03T08:01:34;4.45;;;2.85;;
62687;SDS011;48752;51.056;17.056;2022-09-03T08:04:00;6.55;;;2.75;;
62687;SDS011;48752;51.056;17.056;2022-09-03T08:06:29;5.25;;;2.97;;
62687;SDS011;48752;51.056;17.056;2022-09-03T08:08:56;5.18;;;2.78;;
62687;SDS011;48752;51.056;17.056;2022-09-03T08:11:25;6.07;;;2.53;;
62687;SDS011;48752;51.056;17.056;2022-09-03T08:13:59;12.52;;;3.40;;
62687;SDS011;48752;51.056;17.056;2022-09-03T08:16:35;7.40;;;2.80;;
62687;SDS011;48752;51.056;17.056;2022-09-03T08:19:15;5.88;;;2.95;;
62687;SDS011;48752;51.056;17.056;2022-09-03T08:21:42;12.95;;;3.22;;
62687;SDS011;48752;51.056;17.056;2022-09-03T08:24:08;8.85;;;2.85;;
62687;SDS011;48752;51.056;17.056;2022-09-03T08:26:40;7.38;;;3.05;;
62687;SDS011;48752;51.056;17.056;2022-09-03T08:29:08;8.18;;;3.08;;
62687;SDS011;48752;51.056;17.056;2022-09-03T08:31:35;9.07;;;2.97;;
62687;SDS011;48752;51.056;17.056;2022-09-03T08:34:02;10.00;;;2.95;;
62687;SDS011;48752;51.056;17.056;2022-09-03T08:36:31;5.53;;;2.95;;
62687;SDS011;48752;51.056;17.056;2022-09-03T08:38:59;5.20;;;2.58;;
62687;SDS011;48752;51.056;17.056;2022-09-03T08:47:01;4.63;;;2.42;;
62687;SDS011;48752;51.056;17.056;2022-09-03T08:49:40;4.55;;;2.80;;
62687;SDS011;48752;51.056;17.056;2022-09-03T08:58:10;4.25;;;2.53;;
62687;SDS011;48752;51.056;17.056;2022-09-03T09:03:40;4.18;;;2.28;;
62687;SDS011;48752;51.056;17.056;2022-09-03T09:06:28;5.85;;;2.75;;
62687;SDS011;48752;51.056;17.056;2022-09-03T09:15:03;8.18;;;3.30;;
62687;SDS011;48752;51.056;17.056;2022-09-03T09:20:14;4.85;;;2.53;;
62687;SDS011;48752;51.056;17.056;2022-09-03T09:22:46;9.77;;;2.65;;
62687;SDS011;48752;51.056;17.056;2022-09-03T09:25:21;7.00;;;3.20;;
62687;SDS011;48752;51.056;17.056;2022-09-03T09:30:29;5.18;;;2.75;;
62687;SDS011;48752;51.056;17.056;2022-09-03T09:32:57;8.27;;;2.83;;
62687;SDS011;48752;51.056;17.056;2022-09-03T09:35:24;11.52;;;2.92;;
62687;SDS011;48752;51.056;17.056;2022-09-03T09:37:53;15.40;;;3.67;;
62687;SDS011;48752;51.056;17.056;2022-09-03T09:40:43;5.00;;;2.58;;
62687;SDS011;48752;51.056;17.056;2022-09-03T09:43:09;5.53;;;3.25;;
62687;SDS011;48752;51.056;17.056;2022-09-03T09:45:37;5.70;;;2.90;;
62687;SDS011;48752;51.056;17.056;2022-09-03T09:48:06;5.15;;;2.25;;
62687;SDS011;48752;51.056;17.056;2022-09-03T09:50:34;6.30;;;2.60;;
62687;SDS011;48752;51.056;17.056;2022-09-03T09:53:01;6.88;;;2.58;;
62687;SDS011;48752;51.056;17.056;2022-09-03T09:55:32;3.53;;;3.20;;
62687;SDS011;48752;51.056;17.056;2022-09-03T09:58:07;4.95;;;2.17;;
62687;SDS011;48752;51.056;17.056;2022-09-03T10:00:34;6.38;;;2.78;;
62687;SDS011;48752;51.056;17.056;2022-09-03T10:03:01;6.13;;;2.60;;
62687;SDS011;48752;51.056;17.056;2022-09-03T10:05:31;4.00;;;2.00;;
62687;SDS011;48752;51.056;17.056;2022-09-03T10:07:58;3.97;;;2.30;;
62687;SDS011;48752;51.056;17.056;2022-09-03T10:10:25;3.28;;;1.90;;
62687;SDS011;48752;51.056;17.056;2022-09-03T10:16:07;3.78;;;1.90;;
62687;SDS011;48752;51.056;17.056;2022-09-03T10:23:52;9.52;;;2.40;;
62687;SDS011;48752;51.056;17.056;2022-09-03T10:26:22;3.42;;;2.17;;
62687;SDS011;48752;51.056;17.056;2022-09-03T10:28:56;4.35;;;2.45;;
62687;SDS011;48752;51.056;17.056;2022-09-03T10:34:18;6.50;;;2.53;;
62687;SDS011;48752;51.056;17.056;2022-09-03T10:36:52;7.03;;;2.15;;
62687;SDS011;48752;51.056;17.056;2022-09-03T10:47:46;5.88;;;2.08;;
62687;SDS011;48752;51.056;17.056;2022-09-03T10:50:33;5.30;;;2.15;;
62687;SDS011;48752;51.056;17.056;2022-09-03T10:53:19;8.57;;;2.83;;
62687;SDS011;48752;51.056;17.056;2022-09-03T10:55:57;8.15;;;2.65;;
62687;SDS011;48752;51.056;17.056;2022-09-03T11:09:32;4.05;;;2.53;;
62687;SDS011;48752;51.056;17.056;2022-09-03T11:17:48;9.13;;;2.35;;
62687;SDS011;48752;51.056;17.056;2022-09-03T11:20:18;26.60;;;4.03;;
62687;SDS011;48752;51.056;17.056;2022-09-03T11:22:45;5.47;;;2.15;;
62687;SDS011;48752;51.056;17.056;2022-09-03T11:25:13;6.65;;;2.30;;
62687;SDS011;48752;51.056;17.056;2022-09-03T11:30:05;7.25;;;2.22;;
62687;SDS011;48752;51.056;17.056;2022-09-03T11:35:12;6.15;;;2.45;;
62687;SDS011;48752;51.056;17.056;2022-09-03T11:37:52;4.35;;;2.40;;
62687;SDS011;48752;51.056;17.056;2022-09-03T11:40:27;4.03;;;2.30;;
62687;SDS011;48752;51.056;17.056;2022-09-03T11:43:03;6.82;;;2.72;;
62687;SDS011;48752;51.056;17.056;2022-09-03T11:45:36;6.93;;;3.08;;
62687;SDS011;48752;51.056;17.056;2022-09-03T11:48:15;5.60;;;2.42;;
62687;SDS011;48752;51.056;17.056;2022-09-03T11:50:49;5.20;;;2.65;;
62687;SDS011;48752;51.056;17.056;2022-09-03T11:55:51;6.35;;;2.70;;
62687;SDS011;48752;51.056;17.056;2022-09-03T11:58:26;7.57;;;2.60;;
62687;SDS011;48752;51.056;17.056;2022-09-03T12:00:54;5.60;;;2.22;;
62687;SDS011;48752;51.056;17.056;2022-09-03T12:03:24;4.25;;;3.33;;
62687;SDS011;48752;51.056;17.056;2022-09-03T12:06:19;7.57;;;2.88;;
62687;SDS011;48752;51.056;17.056;2022-09-03T12:14:55;4.45;;;2.47;;
62687;SDS011;48752;51.056;17.056;2022-09-03T12:19:53;8.95;;;3.08;;
62687;SDS011;48752;51.056;17.056;2022-09-03T12:22:21;5.00;;;3.10;;
62687;SDS011;48752;51.056;17.056;2022-09-03T12:24:53;7.15;;;2.90;;
62687;SDS011;48752;51.056;17.056;2022-09-03T12:27:22;5.43;;;3.00;;
62687;SDS011;48752;51.056;17.056;2022-09-03T12:29:57;5.28;;;2.55;;
62687;SDS011;48752;51.056;17.056;2022-09-03T12:32:32;4.35;;;2.63;;
62687;SDS011;48752;51.056;17.056;2022-09-03T12:35:10;5.82;;;2.67;;
62687;SDS011;48752;51.056;17.056;2022-09-03T12:37:36;4.53;;;2.80;;
62687;SDS011;48752;51.056;17.056;2022-09-03T12:40:02;7.55;;;3.13;;
62687;SDS011;48752;51.056;17.056;2022-09-03T12:42:31;3.72;;;2.30;;
62687;SDS011;48752;51.056;17.056;2022-09-03T12:45:06;3.17;;;2.17;;
62687;SDS011;48752;51.056;17.056;2022-09-03T12:47:37;4.32;;;2.45;;
62687;SDS011;48752;51.056;17.056;2022-09-03T12:50:24;4.65;;;2.10;;
62687;SDS011;48752;51.056;17.056;2022-09-03T12:58:12;6.30;;;2.28;;
62687;SDS011;48752;51.056;17.056;2022-09-03T13:00:59;4.43;;;2.15;;
62687;SDS011;48752;51.056;17.056;2022-09-03T13:06:08;8.63;;;3.78;;
62687;SDS011;48752;51.056;17.056;2022-09-03T13:08:39;4.45;;;2.85;;
62687;SDS011;48752;51.056;17.056;2022-09-03T13:11:14;7.47;;;2.97;;
62687;SDS011;48752;51.056;17.056;2022-09-03T13:13:49;9.13;;;3.30;;
62687;SDS011;48752;51.056;17.056;2022-09-03T13:18:55;12.25;;;3.88;;
62687;SDS011;48752;51.056;17.056;2022-09-03T13:21:40;5.38;;;2.35;;
62687;SDS011;48752;51.056;17.056;2022-09-03T13:29:24;6.60;;;2.63;;
62687;SDS011;48752;51.056;17.056;2022-09-03T13:32:09;3.35;;;2.13;;
62687;SDS011;48752;51.056;17.056;2022-09-03T13:37:18;5.85;;;2.10;;
62687;SDS011;48752;51.056;17.056;2022-09-03T13:40:14;15.27;;;3.08;;
62687;SDS011;48752;51.056;17.056;2022-09-03T13:42:44;5.75;;;3.00;;
62687;SDS011;48752;51.056;17.056;2022-09-03T13:48:24;4.03;;;2.60;;
62687;SDS011;48752;51.056;17.056;2022-09-03T14:04:46;5.60;;;2.67;;
62687;SDS011;48752;51.056;17.056;2022-09-03T14:12:44;5.28;;;3.00;;
62687;SDS011;48752;51.056;17.056;2022-09-03T14:20:23;4.57;;;2.95;;
62687;SDS011;48752;51.056;17.056;2022-09-03T14:25:25;5.35;;;2.92;;
62687;SDS011;48752;51.056;17.056;2022-09-03T14:27:51;6.53;;;3.25;;
62687;SDS011;48752;51.056;17.056;2022-09-03T14:30:30;3.63;;;3.10;;
62687;SDS011;48752;51.056;17.056;2022-09-03T14:33:09;6.20;;;2.85;;
62687;SDS011;48752;51.056;17.056;2022-09-03T14:57:29;7.22;;;3.03;;
62687;SDS011;48752;51.056;17.056;2022-09-03T15:10:59;7.45;;;2.90;;
62687;SDS011;48752;51.056;17.056;2022-09-03T15:13:28;3.03;;;2.40;;
62687;SDS011;48752;51.056;17.056;2022-09-03T15:16:04;7.75;;;2.90;;
62687;SDS011;48752;51.056;17.056;2022-09-03T15:36:39;5.65;;;3.13;;
62687;SDS011;48752;51.056;17.056;2022-09-03T15:39:26;5.03;;;2.70;;
62687;SDS011;48752;51.056;17.056;2022-09-03T15:41:58;5.47;;;2.97;;
62687;SDS011;48752;51.056;17.056;2022-09-03T15:44:25;5.75;;;2.45;;
62687;SDS011;48752;51.056;17.056;2022-09-03T15:50:07;7.38;;;3.92;;
62687;SDS011;48752;51.056;17.056;2022-09-03T16:00:29;8.32;;;3.25;;
62687;SDS011;48752;51.056;17.056;2022-09-03T16:03:00;6.70;;;3.13;;
62687;SDS011;48752;51.056;17.056;2022-09-03T16:08:36;9.38;;;4.35;;
62687;SDS011;48752;51.056;17.056;2022-09-03T16:11:17;3.58;;;2.97;;
62687;SDS011;48752;51.056;17.056;2022-09-03T16:21:58;6.18;;;3.40;;
62687;SDS011;48752;51.056;17.056;2022-09-03T16:27:16;7.85;;;3.03;;
62687;SDS011;48752;51.056;17.056;2022-09-03T16:29:59;4.68;;;2.90;;
62687;SDS011;48752;51.056;17.056;2022-09-03T16:46:23;6.40;;;3.08;;
62687;SDS011;48752;51.056;17.056;2022-09-03T16:51:38;6.05;;;3.20;;
62687;SDS011;48752;51.056;17.056;2022-09-03T17:05:02;11.18;;;5.85;;
62687;SDS011;48752;51.056;17.056;2022-09-03T17:18:02;8.02;;;4.47;;
62687;SDS011;48752;51.056;17.056;2022-09-03T17:20:48;7.18;;;3.97;;
62687;SDS011;48752;51.056;17.056;2022-09-03T17:26:25;6.72;;;3.88;;
62687;SDS011;48752;51.056;17.056;2022-09-03T17:28:57;8.05;;;4.25;;
62687;SDS011;48752;51.056;17.056;2022-09-03T17:31:30;9.18;;;4.53;;
62687;SDS011;48752;51.056;17.056;2022-09-03T17:37:13;7.45;;;4.50;;
62687;SDS011;48752;51.056;17.056;2022-09-03T17:42:25;18.15;;;5.07;;
62687;SDS011;48752;51.056;17.056;2022-09-03T17:45:02;8.88;;;5.20;;
62687;SDS011;48752;51.056;17.056;2022-09-03T17:47:51;9.77;;;5.00;;
62687;SDS011;48752;51.056;17.056;2022-09-03T17:53:23;6.40;;;3.95;;
62687;SDS011;48752;51.056;17.056;2022-09-03T17:56:08;6.03;;;4.22;;
62687;SDS011;48752;51.056;17.056;2022-09-03T17:58:41;8.32;;;4.47;;
62687;SDS011;48752;51.056;17.056;2022-09-03T18:03:40;9.73;;;4.82;;
62687;SDS011;48752;51.056;17.056;2022-09-03T18:06:11;10.32;;;5.60;;
62687;SDS011;48752;51.056;17.056;2022-09-03T18:08:54;6.78;;;4.30;;
62687;SDS011;48752;51.056;17.056;2022-09-03T18:11:30;8.73;;;4.70;;
62687;SDS011;48752;51.056;17.056;2022-09-03T18:14:04;8.57;;;4.70;;
62687;SDS011;48752;51.056;17.056;2022-09-03T18:21:41;7.78;;;4.70;;
62687;SDS011;48752;51.056;17.056;2022-09-03T18:24:27;6.18;;;4.15;;
62687;SDS011;48752;51.056;17.056;2022-09-03T18:30:33;7.43;;;4.95;;
62687;SDS011;48752;51.056;17.056;2022-09-03T18:33:22;11.02;;;5.60;;
62687;SDS011;48752;51.056;17.056;2022-09-03T18:36:07;6.28;;;5.18;;
62687;SDS011;48752;51.056;17.056;2022-09-03T18:38:51;9.23;;;5.55;;
62687;SDS011;48752;51.056;17.056;2022-09-03T18:45:30;10.20;;;6.00;;
62687;SDS011;48752;51.056;17.056;2022-09-03T18:48:24;11.23;;;5.38;;
62687;SDS011;48752;51.056;17.056;2022-09-03T18:51:26;9.88;;;6.00;;
62687;SDS011;48752;51.056;17.056;2022-09-03T18:57:07;12.43;;;6.80;;
62687;SDS011;48752;51.056;17.056;2022-09-03T19:08:46;9.80;;;6.72;;
62687;SDS011;48752;51.056;17.056;2022-09-03T19:11:46;9.98;;;7.03;;
62687;SDS011;48752;51.056;17.056;2022-09-03T19:14:33;10.07;;;6.75;;
62687;SDS011;48752;51.056;17.056;2022-09-03T19:20:29;9.10;;;6.68;;
62687;SDS011;48752;51.056;17.056;2022-09-03T19:23:14;11.55;;;6.75;;
62687;SDS011;48752;51.056;17.056;2022-09-03T19:29:08;14.30;;;8.93;;
62687;SDS011;48752;51.056;17.056;2022-09-03T19:32:09;14.43;;;7.82;;
62687;SDS011;48752;51.056;17.056;2022-09-03T19:35:14;12.77;;;8.02;;
62687;SDS011;48752;51.056;17.056;2022-09-03T19:55:30;15.90;;;11.10;;
62687;SDS011;48752;51.056;17.056;2022-09-03T19:58:17;18.02;;;11.57;;
62687;SDS011;48752;51.056;17.056;2022-09-03T20:01:04;16.35;;;10.70;;
62687;SDS011;48752;51.056;17.056;2022-09-03T20:03:48;13.15;;;9.73;;
62687;SDS011;48752;51.056;17.056;2022-09-03T20:06:33;13.75;;;8.40;;
62687;SDS011;48752;51.056;17.056;2022-09-03T20:09:18;14.90;;;9.40;;
62687;SDS011;48752;51.056;17.056;2022-09-03T20:12:05;15.70;;;8.20;;
62687;SDS011;48752;51.056;17.056;2022-09-03T20:14:32;13.70;;;8.68;;
62687;SDS011;48752;51.056;17.056;2022-09-03T20:17:04;14.13;;;8.30;;
62687;SDS011;48752;51.056;17.056;2022-09-03T20:19:35;11.60;;;8.15;;
62687;SDS011;48752;51.056;17.056;2022-09-03T20:27:30;12.30;;;9.45;;
62687;SDS011;48752;51.056;17.056;2022-09-03T20:35:07;16.38;;;8.65;;
62687;SDS011;48752;51.056;17.056;2022-09-03T20:37:37;13.23;;;8.52;;
62687;SDS011;48752;51.056;17.056;2022-09-03T20:42:54;12.30;;;8.43;;
62687;SDS011;48752;51.056;17.056;2022-09-03T20:51:21;18.85;;;11.07;;
62687;SDS011;48752;51.056;17.056;2022-09-03T21:04:49;17.08;;;11.32;;
62687;SDS011;48752;51.056;17.056;2022-09-03T21:13:44;16.85;;;10.60;;
62687;SDS011;48752;51.056;17.056;2022-09-03T21:25:00;17.83;;;9.80;;
62687;SDS011;48752;51.056;17.056;2022-09-03T21:27:31;15.88;;;9.80;;
62687;SDS011;48752;51.056;17.056;2022-09-03T21:30:03;16.77;;;10.23;;
62687;SDS011;48752;51.056;17.056;2022-09-03T21:33:05;15.90;;;8.98;;
62687;SDS011;48752;51.056;17.056;2022-09-03T21:35:41;14.25;;;9.02;;
62687;SDS011;48752;51.056;17.056;2022-09-03T21:38:26;14.20;;;10.13;;
62687;SDS011;48752;51.056;17.056;2022-09-03T21:41:13;15.82;;;9.80;;
62687;SDS011;48752;51.056;17.056;2022-09-03T21:43:43;15.25;;;9.77;;
62687;SDS011;48752;51.056;17.056;2022-09-03T21:46:20;15.43;;;8.53;;
62687;SDS011;48752;51.056;17.056;2022-09-03T21:54:44;14.27;;;8.30;;
62687;SDS011;48752;51.056;17.056;2022-09-03T22:00:11;15.48;;;7.95;;
62687;SDS011;48752;51.056;17.056;2022-09-03T22:02:41;11.70;;;7.53;;
62687;SDS011;48752;51.056;17.056;2022-09-03T22:05:07;14.05;;;8.45;;
62687;SDS011;48752;51.056;17.056;2022-09-03T22:10:51;9.57;;;7.65;;